createdAt,value
2023-09-22T00:00:02.974Z,1006
2023-09-22T00:01:01.961Z,1006
2023-09-22T00:02:02.612Z,1006.1
2023-09-22T00:03:02.567Z,1006
2023-09-22T00:04:02.725Z,1006.1
2023-09-22T00:05:02.486Z,1006
2023-09-22T00:06:06.139Z,1006
2023-09-22T00:07:01.785Z,1006
2023-09-22T00:08:01.861Z,1006
2023-09-22T00:09:01.748Z,1006
2023-09-22T00:10:01.675Z,1006
2023-09-22T00:11:02.839Z,1006
2023-09-22T00:12:02.580Z,1006
2023-09-22T00:13:02.811Z,1005.9
2023-09-22T00:14:02.586Z,1005.9
2023-09-22T00:15:02.605Z,1005.9
2023-09-22T00:16:02.596Z,1005.9
2023-09-22T00:18:01.929Z,1005.9
2023-09-22T00:19:02.837Z,1005.9
2023-09-22T00:20:02.588Z,1005.8
2023-09-22T00:21:03.009Z,1005.9
2023-09-22T00:22:01.919Z,1005.9
2023-09-22T00:23:03.082Z,1005.9
2023-09-22T00:24:01.685Z,1005.9
2023-09-22T00:25:01.782Z,1005.9
2023-09-22T00:26:01.652Z,1005.9
2023-09-22T00:27:02.942Z,1005.9
2023-09-22T00:28:03.035Z,1005.9
2023-09-22T00:29:01.924Z,1005.8
2023-09-22T00:30:01.780Z,1005.8
2023-09-22T00:31:02.221Z,1005.8
2023-09-22T00:32:02.477Z,1005.8
2023-09-22T00:33:02.321Z,1005.7
2023-09-22T00:34:02.813Z,1005.8
2023-09-22T00:35:02.581Z,1005.8
2023-09-22T00:36:02.484Z,1005.8
2023-09-22T00:37:02.526Z,1005.7
2023-09-22T00:38:02.510Z,1005.7
2023-09-22T00:39:02.905Z,1005.7
2023-09-22T00:40:02.640Z,1005.8
2023-09-22T00:41:02.546Z,1005.8
2023-09-22T00:42:02.737Z,1005.8
2023-09-22T00:43:02.503Z,1005.8
2023-09-22T00:44:02.604Z,1005.8
2023-09-22T00:45:02.465Z,1005.8
2023-09-22T00:46:02.797Z,1005.8
2023-09-22T00:47:02.603Z,1005.8
2023-09-22T00:48:02.903Z,1005.8
2023-09-22T00:49:02.589Z,1005.7
2023-09-22T00:50:02.664Z,1005.8
2023-09-22T00:51:02.678Z,1005.8
2023-09-22T00:52:02.746Z,1005.7
2023-09-22T00:53:02.532Z,1005.8
2023-09-22T00:54:02.657Z,1005.7
2023-09-22T00:55:02.451Z,1005.7
2023-09-22T00:56:02.553Z,1005.7
2023-09-22T00:57:02.393Z,1005.6
2023-09-22T00:58:02.574Z,1005.6
2023-09-22T00:59:02.407Z,1005.6
2023-09-22T01:00:04.227Z,1005.6
2023-09-22T01:01:01.916Z,1005.6
2023-09-22T01:02:02.434Z,1005.6
2023-09-22T01:03:02.629Z,1005.6
2023-09-22T01:04:02.902Z,1005.6
2023-09-22T01:05:01.708Z,1005.6
2023-09-22T01:06:01.722Z,1005.6
2023-09-22T01:07:01.882Z,1005.5
2023-09-22T01:08:01.726Z,1005.5
2023-09-22T01:09:01.674Z,1005.5
2023-09-22T01:10:01.976Z,1005.5
2023-09-22T01:11:01.718Z,1005.5
2023-09-22T01:12:01.784Z,1005.6
2023-09-22T01:13:02.805Z,1005.5
2023-09-22T01:14:02.602Z,1005.6
2023-09-22T01:15:02.816Z,1005.5
2023-09-22T01:16:02.778Z,1005.6
2023-09-22T01:18:02.228Z,1005.5
2023-09-22T01:19:02.321Z,1005.5
2023-09-22T01:20:02.116Z,1005.6
2023-09-22T01:21:02.089Z,1005.6
2023-09-22T01:22:02.314Z,1005.6
2023-09-22T01:23:02.021Z,1005.6
2023-09-22T01:24:02.220Z,1005.6
2023-09-22T01:25:02.004Z,1005.6
2023-09-22T01:26:02.130Z,1005.5
2023-09-22T01:27:01.998Z,1005.5
2023-09-22T01:28:02.075Z,1005.5
2023-09-22T01:29:01.939Z,1005.4
2023-09-22T01:30:02.086Z,1005.5
2023-09-22T01:31:01.903Z,1005.4
2023-09-22T01:32:02.333Z,1005.4
2023-09-22T01:33:02.387Z,1005.3
2023-09-22T01:34:02.333Z,1005.4
2023-09-22T01:35:01.992Z,1005.3
2023-09-22T01:36:02.352Z,1005.3
2023-09-22T01:37:02.347Z,1005.4
2023-09-22T01:38:02.236Z,1005.3
2023-09-22T01:39:02.607Z,1005.3
2023-09-22T01:40:02.620Z,1005.3
2023-09-22T01:41:02.366Z,1005.3
2023-09-22T01:42:02.353Z,1005.2
2023-09-22T01:43:02.456Z,1005.2
2023-09-22T01:44:02.240Z,1005.2
2023-09-22T01:45:02.668Z,1005.2
2023-09-22T01:46:02.725Z,1005.2
2023-09-22T01:48:01.899Z,1005.1
2023-09-22T01:49:03.113Z,1005.1
2023-09-22T01:50:01.773Z,1005.1
2023-09-22T01:51:01.716Z,1005.1
2023-09-22T01:52:01.882Z,1005.1
2023-09-22T01:53:02.842Z,1005.1
2023-09-22T01:54:02.563Z,1005.2
2023-09-22T01:55:02.754Z,1005.1
2023-09-22T01:56:02.508Z,1005.2
2023-09-22T01:57:02.705Z,1005.2
2023-09-22T01:58:02.631Z,1005.1
2023-09-22T01:59:02.563Z,1005.2
2023-09-22T02:00:02.460Z,1005.1
2023-09-22T02:01:02.658Z,1005.2
2023-09-22T02:02:02.264Z,1005.2
2023-09-22T02:03:02.926Z,1005.2
2023-09-22T02:04:03.372Z,1005.1
2023-09-22T02:05:02.543Z,1005.1
2023-09-22T02:06:02.598Z,1005.2
2023-09-22T02:07:02.451Z,1005.2
2023-09-22T02:08:02.260Z,1005.2
2023-09-22T02:09:02.682Z,1005.1
2023-09-22T02:10:02.535Z,1005.2
2023-09-22T02:11:02.323Z,1005.3
2023-09-22T02:12:02.312Z,1005.2
2023-09-22T02:13:02.303Z,1005.2
2023-09-22T02:14:02.776Z,1005.2
2023-09-22T02:15:02.440Z,1005.3
2023-09-22T02:16:02.745Z,1005.2
2023-09-22T02:18:01.953Z,1005.2
2023-09-22T02:19:01.786Z,1005.2
2023-09-22T02:20:01.838Z,1005.2
2023-09-22T02:21:02.687Z,1005.2
2023-09-22T02:22:02.629Z,1005.2
2023-09-22T02:23:02.590Z,1005.1
2023-09-22T02:24:02.415Z,1005.2
2023-09-22T02:25:02.645Z,1005.1
2023-09-22T02:26:02.444Z,1005.2
2023-09-22T02:27:02.327Z,1005.2
2023-09-22T02:28:02.552Z,1005.1
2023-09-22T02:29:02.476Z,1005
2023-09-22T02:30:02.172Z,1005.1
2023-09-22T02:31:02.573Z,1005.1
2023-09-22T02:32:03.302Z,1005.1
2023-09-22T02:33:02.291Z,1005.2
2023-09-22T02:34:02.386Z,1005.1
2023-09-22T02:35:02.050Z,1005.1
2023-09-22T02:36:02.217Z,1005.1
2023-09-22T02:37:02.398Z,1005.1
2023-09-22T02:38:02.106Z,1005.1
2023-09-22T02:39:02.202Z,1005.1
2023-09-22T02:40:02.339Z,1005.1
2023-09-22T02:41:02.036Z,1005.2
2023-09-22T02:42:02.167Z,1005.2
2023-09-22T02:43:02.028Z,1005.2
2023-09-22T02:44:01.979Z,1005.2
2023-09-22T02:45:01.950Z,1005.2
2023-09-22T02:46:02.323Z,1005.2
2023-09-22T02:47:02.762Z,1005.3
2023-09-22T02:48:02.635Z,1005.2
2023-09-22T02:49:02.875Z,1005.2
2023-09-22T02:50:02.558Z,1005.3
2023-09-22T02:51:02.567Z,1005.2
2023-09-22T02:52:02.654Z,1005.2
2023-09-22T02:53:02.648Z,1005.3
2023-09-22T02:54:02.384Z,1005.3
2023-09-22T02:55:02.647Z,1005.2
2023-09-22T02:56:02.466Z,1005.3
2023-09-22T02:57:02.245Z,1005.2
2023-09-22T02:58:02.666Z,1005.3
2023-09-22T02:59:02.610Z,1005.2
2023-09-22T03:00:02.406Z,1005.3
2023-09-22T03:01:03.136Z,1005.3
2023-09-22T03:02:02.523Z,1005.3
2023-09-22T03:03:03.132Z,1005.3
2023-09-22T03:04:02.450Z,1005.4
2023-09-22T03:05:02.140Z,1005.3
2023-09-22T03:06:02.074Z,1005.2
2023-09-22T03:07:02.318Z,1005.3
2023-09-22T03:08:02.039Z,1005.3
2023-09-22T03:09:02.088Z,1005.3
2023-09-22T03:10:02.248Z,1005.3
2023-09-22T03:11:01.906Z,1005.3
2023-09-22T03:12:01.938Z,1005.3
2023-09-22T03:13:01.876Z,1005.3
2023-09-22T03:14:01.776Z,1005.3
2023-09-22T03:15:01.666Z,1005.3
2023-09-22T03:16:03.169Z,1005.2
2023-09-22T03:18:02.054Z,1005.3
2023-09-22T03:19:01.942Z,1005.3
2023-09-22T03:20:01.846Z,1005.3
2023-09-22T03:21:01.609Z,1005.3
2023-09-22T03:22:02.953Z,1005.3
2023-09-22T03:23:01.639Z,1005.2
2023-09-22T03:24:01.665Z,1005.2
2023-09-22T03:25:04.843Z,1005.3
2023-09-22T03:26:02.591Z,1005.3
2023-09-22T03:27:02.710Z,1005.2
2023-09-22T03:28:02.643Z,1005.2
2023-09-22T03:29:02.458Z,1005.2
2023-09-22T03:30:02.409Z,1005.2
2023-09-22T03:31:02.794Z,1005.2
2023-09-22T03:33:02.659Z,1005.3
2023-09-22T03:34:02.698Z,1005.3
2023-09-22T03:35:02.353Z,1005.3
2023-09-22T03:36:02.460Z,1005.3
2023-09-22T03:37:02.675Z,1005.3
2023-09-22T03:38:02.360Z,1005.3
2023-09-22T03:39:02.554Z,1005.3
2023-09-22T03:40:02.535Z,1005.3
2023-09-22T03:41:04.489Z,1005.4
2023-09-22T03:42:02.122Z,1005.4
2023-09-22T03:43:02.310Z,1005.4
2023-09-22T03:44:02.062Z,1005.4
2023-09-22T03:45:02.148Z,1005.4
2023-09-22T03:46:02.165Z,1005.3
2023-09-22T03:47:02.042Z,1005.3
2023-09-22T03:48:02.086Z,1005.3
2023-09-22T03:49:02.103Z,1005.3
2023-09-22T03:50:02.046Z,1005.3
2023-09-22T03:51:01.855Z,1005.3
2023-09-22T03:52:01.994Z,1005.3
2023-09-22T03:53:01.904Z,1005.3
2023-09-22T03:54:01.691Z,1005.3
2023-09-22T03:55:01.835Z,1005.3
2023-09-22T03:56:02.579Z,1005.3
2023-09-22T03:57:02.597Z,1005.4
2023-09-22T03:58:02.797Z,1005.4
2023-09-22T03:59:02.530Z,1005.4
2023-09-22T04:00:03.150Z,1005.5
2023-09-22T04:01:02.553Z,1005.4
2023-09-22T04:02:02.346Z,1005.4
2023-09-22T04:03:02.750Z,1005.4
2023-09-22T04:04:02.677Z,1005.4
2023-09-22T04:05:02.409Z,1005.4
2023-09-22T04:06:02.505Z,1005.4
2023-09-22T04:07:02.615Z,1005.4
2023-09-22T04:08:02.298Z,1005.4
2023-09-22T04:09:02.228Z,1005.3
2023-09-22T04:10:02.427Z,1005.3
2023-09-22T04:11:02.104Z,1005.3
2023-09-22T04:12:02.102Z,1005.3
2023-09-22T04:13:02.328Z,1005.3
2023-09-22T04:14:01.982Z,1005.3
2023-09-22T04:15:02.000Z,1005.3
2023-09-22T04:16:02.532Z,1005.2
2023-09-22T04:17:02.612Z,1005.3
2023-09-22T04:18:02.498Z,1005.3
2023-09-22T04:19:02.709Z,1005.3
2023-09-22T04:20:02.470Z,1005.2
2023-09-22T04:21:02.466Z,1005.2
2023-09-22T04:22:02.433Z,1005.2
2023-09-22T04:23:02.418Z,1005.3
2023-09-22T04:24:02.306Z,1005.2
2023-09-22T04:25:02.337Z,1005.2
2023-09-22T04:26:02.249Z,1005.2
2023-09-22T04:27:02.419Z,1005.2
2023-09-22T04:28:02.195Z,1005.2
2023-09-22T04:29:02.210Z,1005.3
2023-09-22T04:30:02.043Z,1005.3
2023-09-22T04:31:02.727Z,1005.3
2023-09-22T04:32:02.392Z,1005.3
2023-09-22T04:33:02.381Z,1005.2
2023-09-22T04:34:02.371Z,1005.2
2023-09-22T04:35:02.116Z,1005.2
2023-09-22T04:36:02.163Z,1005.2
2023-09-22T04:37:02.334Z,1005.2
2023-09-22T04:38:02.088Z,1005.3
2023-09-22T04:39:02.167Z,1005.3
2023-09-22T04:40:02.056Z,1005.2
2023-09-22T04:41:01.849Z,1005.3
2023-09-22T04:42:01.760Z,1005.3
2023-09-22T04:43:01.991Z,1005.4
2023-09-22T04:44:01.745Z,1005.3
2023-09-22T04:45:01.720Z,1005.4
2023-09-22T04:46:03.035Z,1005.3
2023-09-22T04:48:01.970Z,1005.4
2023-09-22T04:49:01.726Z,1005.3
2023-09-22T04:50:02.771Z,1005.3
2023-09-22T04:51:02.528Z,1005.3
2023-09-22T04:52:02.900Z,1005.3
2023-09-22T04:53:02.584Z,1005.3
2023-09-22T04:54:03.356Z,1005.3
2023-09-22T04:55:02.415Z,1005.3
2023-09-22T04:56:02.256Z,1005.3
2023-09-22T04:57:02.239Z,1005.3
2023-09-22T04:58:02.190Z,1005.3
2023-09-22T04:59:02.384Z,1005.3
2023-09-22T05:00:03.202Z,1005.3
2023-09-22T05:01:02.123Z,1005.3
2023-09-22T05:02:02.251Z,1005.3
2023-09-22T05:03:02.954Z,1005.3
2023-09-22T05:04:02.417Z,1005.3
2023-09-22T05:05:02.109Z,1005.3
2023-09-22T05:06:02.331Z,1005.3
2023-09-22T05:07:02.329Z,1005.3
2023-09-22T05:08:02.069Z,1005.3
2023-09-22T05:09:02.061Z,1005.3
2023-09-22T05:10:02.007Z,1005.3
2023-09-22T05:11:02.600Z,1005.2
2023-09-22T05:12:02.628Z,1005.2
2023-09-22T05:13:02.631Z,1005.2
2023-09-22T05:14:02.429Z,1005.2
2023-09-22T05:15:02.595Z,1005.2
2023-09-22T05:16:02.717Z,1005.2
2023-09-22T05:18:02.021Z,1005.1
2023-09-22T05:19:01.917Z,1005.2
2023-09-22T05:20:01.773Z,1005.2
2023-09-22T05:21:01.601Z,1005.2
2023-09-22T05:22:02.893Z,1005.2
2023-09-22T05:23:02.766Z,1005.2
2023-09-22T05:24:02.535Z,1005.2
2023-09-22T05:25:02.663Z,1005.2
2023-09-22T05:26:02.704Z,1005.2
2023-09-22T05:27:02.637Z,1005.2
2023-09-22T05:28:02.701Z,1005.2
2023-09-22T05:29:02.472Z,1005.2
2023-09-22T05:30:02.822Z,1005.2
2023-09-22T05:31:03.549Z,1005.2
2023-09-22T05:33:02.170Z,1005.2
2023-09-22T05:34:01.981Z,1005.2
2023-09-22T05:35:02.072Z,1005.2
2023-09-22T05:36:01.704Z,1005.1
2023-09-22T05:37:02.049Z,1005.1
2023-09-22T05:38:01.709Z,1005.2
2023-09-22T05:39:01.770Z,1005.2
2023-09-22T05:40:01.680Z,1005.2
2023-09-22T05:41:02.917Z,1005.2
2023-09-22T05:42:01.661Z,1005.2
2023-09-22T05:43:01.827Z,1005.2
2023-09-22T05:44:02.661Z,1005.2
2023-09-22T05:45:02.573Z,1005.2
2023-09-22T05:46:02.936Z,1005.2
2023-09-22T05:48:01.992Z,1005.2
2023-09-22T05:49:01.932Z,1005.3
2023-09-22T05:50:01.834Z,1005.2
2023-09-22T05:51:02.572Z,1005.3
2023-09-22T05:52:02.391Z,1005.3
2023-09-22T05:53:02.196Z,1005.3
2023-09-22T05:54:02.025Z,1005.3
2023-09-22T05:55:02.384Z,1005.2
2023-09-22T05:56:02.080Z,1005.2
2023-09-22T05:57:02.296Z,1005.3
2023-09-22T05:58:02.450Z,1005.2
2023-09-22T05:59:02.143Z,1005.3
2023-09-22T06:00:02.550Z,1005.3
2023-09-22T06:01:02.641Z,1005.3
2023-09-22T06:02:02.214Z,1005.4
2023-09-22T06:03:02.490Z,1005.4
2023-09-22T06:04:02.651Z,1005.4
2023-09-22T06:05:02.324Z,1005.4
2023-09-22T06:06:02.483Z,1005.4
2023-09-22T06:07:02.384Z,1005.4
2023-09-22T06:08:02.340Z,1005.4
2023-09-22T06:09:02.095Z,1005.4
2023-09-22T06:10:02.375Z,1005.4
2023-09-22T06:11:02.510Z,1005.5
2023-09-22T06:12:02.136Z,1005.5
2023-09-22T06:13:02.449Z,1005.5
2023-09-22T06:14:02.407Z,1005.5
2023-09-22T06:15:02.127Z,1005.5
2023-09-22T06:16:03.208Z,1005.5
2023-09-22T06:18:02.379Z,1005.5
2023-09-22T06:19:02.613Z,1005.6
2023-09-22T06:20:02.437Z,1005.5
2023-09-22T06:21:02.425Z,1005.5
2023-09-22T06:22:02.549Z,1005.4
2023-09-22T06:23:02.365Z,1005.5
2023-09-22T06:24:02.178Z,1005.4
2023-09-22T06:25:02.506Z,1005.5
2023-09-22T06:26:02.378Z,1005.4
2023-09-22T06:27:02.137Z,1005.4
2023-09-22T06:28:02.252Z,1005.5
2023-09-22T06:29:02.373Z,1005.4
2023-09-22T06:30:02.353Z,1005.5
2023-09-22T06:31:02.508Z,1005.5
2023-09-22T06:32:02.634Z,1005.4
2023-09-22T06:33:02.517Z,1005.5
2023-09-22T06:34:02.625Z,1005.5
2023-09-22T06:35:02.618Z,1005.4
2023-09-22T06:36:02.327Z,1005.5
2023-09-22T06:37:02.637Z,1005.4
2023-09-22T06:38:02.413Z,1005.4
2023-09-22T06:39:02.316Z,1005.4
2023-09-22T06:40:02.574Z,1005.4
2023-09-22T06:41:04.800Z,1005.5
2023-09-22T06:42:02.447Z,1005.4
2023-09-22T06:43:24.129Z,1005.5
2023-09-22T06:44:01.954Z,1005.5
2023-09-22T06:45:02.035Z,1005.5
2023-09-22T06:46:01.889Z,1005.6
2023-09-22T06:47:02.355Z,1005.6
2023-09-22T06:48:02.523Z,1005.6
2023-09-22T06:49:02.491Z,1005.6
2023-09-22T06:50:02.174Z,1005.6
2023-09-22T06:51:02.556Z,1005.7
2023-09-22T06:52:02.690Z,1005.6
2023-09-22T06:53:02.360Z,1005.7
2023-09-22T06:54:02.413Z,1005.7
2023-09-22T06:55:02.692Z,1005.7
2023-09-22T06:56:02.409Z,1005.6
2023-09-22T06:57:02.563Z,1005.7
2023-09-22T06:58:02.571Z,1005.7
2023-09-22T06:59:02.802Z,1005.7
2023-09-22T07:00:02.529Z,1005.8
2023-09-22T07:01:02.697Z,1005.8
2023-09-22T07:03:02.400Z,1005.9
2023-09-22T07:04:02.521Z,1005.8
2023-09-22T07:05:02.235Z,1005.9
2023-09-22T07:06:02.398Z,1005.9
2023-09-22T07:07:02.510Z,1005.9
2023-09-22T07:08:02.343Z,1005.9
2023-09-22T07:09:02.212Z,1005.9
2023-09-22T07:10:02.386Z,1005.9
2023-09-22T07:11:02.235Z,1005.9
2023-09-22T07:12:02.671Z,1005.9
2023-09-22T07:13:02.583Z,1005.9
2023-09-22T07:14:02.453Z,1005.9
2023-09-22T07:15:02.321Z,1005.9
2023-09-22T07:16:02.651Z,1006
2023-09-22T07:17:02.435Z,1006
2023-09-22T07:18:02.681Z,1006
2023-09-22T07:19:02.814Z,1006
2023-09-22T07:20:02.577Z,1006
2023-09-22T07:21:02.714Z,1006
2023-09-22T07:22:03.516Z,1006
2023-09-22T07:23:02.348Z,1006.1
2023-09-22T07:24:02.424Z,1006
2023-09-22T07:25:02.683Z,1006
2023-09-22T07:26:02.371Z,1006
2023-09-22T07:27:03.042Z,1006
2023-09-22T07:28:01.823Z,1006.1
2023-09-22T07:29:01.805Z,1006.1
2023-09-22T07:30:03.231Z,1006
2023-09-22T07:31:02.140Z,1006.1
2023-09-22T07:32:02.619Z,1006.2
2023-09-22T07:33:02.628Z,1006.1
2023-09-22T07:34:02.528Z,1006.1
2023-09-22T07:35:02.479Z,1006.2
2023-09-22T07:36:02.555Z,1006.1
2023-09-22T07:37:21.841Z,1006.1
2023-09-22T07:38:02.616Z,1006.1
2023-09-22T07:39:02.998Z,1006
2023-09-22T07:40:01.739Z,1006.1
2023-09-22T07:41:02.749Z,1006.1
2023-09-22T07:42:02.590Z,1006.1
2023-09-22T07:43:02.608Z,1006.1
2023-09-22T07:44:02.645Z,1006.1
2023-09-22T07:45:02.530Z,1006.1
2023-09-22T07:46:02.844Z,1006.1
2023-09-22T07:48:02.113Z,1006
2023-09-22T07:49:02.310Z,1006.1
2023-09-22T07:50:01.968Z,1006
2023-09-22T07:51:02.095Z,1006
2023-09-22T07:52:02.018Z,1006
2023-09-22T07:53:01.905Z,1006
2023-09-22T07:54:01.872Z,1006
2023-09-22T07:55:01.941Z,1006
2023-09-22T07:56:01.812Z,1006
2023-09-22T07:57:01.676Z,1006
2023-09-22T07:58:01.761Z,1006
2023-09-22T07:59:15.259Z,1006.1
2023-09-22T08:00:03.495Z,1006.1
2023-09-22T08:01:02.815Z,1006
2023-09-22T08:03:02.263Z,1006
2023-09-22T08:04:02.943Z,1006
2023-09-22T08:05:01.684Z,1006.1
2023-09-22T08:06:02.785Z,1006.1
2023-09-22T08:07:02.775Z,1006.1
2023-09-22T08:08:02.791Z,1006.1
2023-09-22T08:09:02.568Z,1006.1
2023-09-22T08:10:02.918Z,1006.1
2023-09-22T08:11:01.627Z,1006.2
2023-09-22T08:12:02.693Z,1006.2
2023-09-22T08:13:02.670Z,1006.2
2023-09-22T08:14:02.614Z,1006.2
2023-09-22T08:15:02.615Z,1006.2
2023-09-22T08:16:02.862Z,1006.3
2023-09-22T08:17:02.722Z,1006.2
2023-09-22T08:18:02.846Z,1006.2
2023-09-22T08:19:03.096Z,1006.3
2023-09-22T08:20:02.132Z,1006.2
2023-09-22T08:21:01.957Z,1006.2
2023-09-22T08:22:01.881Z,1006.2
2023-09-22T08:23:01.722Z,1006.2
2023-09-22T08:24:01.777Z,1006.2
2023-09-22T08:25:02.966Z,1006.2
2023-09-22T08:26:01.687Z,1006.2
2023-09-22T08:27:01.836Z,1006.2
2023-09-22T08:28:02.902Z,1006.1
2023-09-22T08:29:02.589Z,1006.1
2023-09-22T08:30:02.553Z,1006.2
2023-09-22T08:31:02.717Z,1006.2
2023-09-22T08:33:02.782Z,1006.1
2023-09-22T08:34:02.716Z,1006.1
2023-09-22T08:35:02.769Z,1006.1
2023-09-22T08:36:05.203Z,1006.2
2023-09-22T08:37:01.968Z,1006.2
2023-09-22T08:38:01.923Z,1006.3
2023-09-22T08:39:01.839Z,1006.2
2023-09-22T08:40:01.804Z,1006.2
2023-09-22T08:41:02.682Z,1006.1
2023-09-22T08:42:02.645Z,1006.1
2023-09-22T08:43:02.789Z,1006.1
2023-09-22T08:44:02.942Z,1006.1
2023-09-22T08:45:01.666Z,1006
2023-09-22T08:46:03.100Z,1006
2023-09-22T08:47:02.717Z,1006
2023-09-22T08:48:02.831Z,1006
2023-09-22T08:49:02.695Z,1006.1
2023-09-22T08:50:02.505Z,1006.1
2023-09-22T08:51:02.464Z,1006
2023-09-22T08:52:02.570Z,1006
2023-09-22T08:53:02.448Z,1006
2023-09-22T08:54:02.377Z,1006
2023-09-22T08:55:02.590Z,1005.9
2023-09-22T08:56:02.595Z,1006
2023-09-22T08:57:02.269Z,1006
2023-09-22T08:58:02.511Z,1005.9
2023-09-22T08:59:02.282Z,1006
2023-09-22T09:00:02.342Z,1005.9
2023-09-22T09:01:02.813Z,1005.9
2023-09-22T09:02:02.971Z,1006
2023-09-22T09:03:02.948Z,1006
2023-09-22T09:04:01.922Z,1006
2023-09-22T09:05:01.710Z,1006.1
2023-09-22T09:06:02.791Z,1006
2023-09-22T09:07:02.741Z,1006
2023-09-22T09:08:02.595Z,1006
2023-09-22T09:09:02.408Z,1006
2023-09-22T09:10:03.192Z,1006.1
2023-09-22T09:11:01.827Z,1006.2
2023-09-22T09:12:02.175Z,1006.1
2023-09-22T09:13:02.438Z,1006.2
2023-09-22T09:14:02.199Z,1006.2
2023-09-22T09:15:03.225Z,1006.2
2023-09-22T09:16:02.084Z,1006.2
2023-09-22T09:17:02.744Z,1006.1
2023-09-22T09:18:02.874Z,1006.2
2023-09-22T09:19:02.786Z,1006.2
2023-09-22T09:20:02.739Z,1006.2
2023-09-22T09:21:02.448Z,1006.3
2023-09-22T09:22:02.633Z,1006.3
2023-09-22T09:23:02.348Z,1006.2
2023-09-22T09:24:02.380Z,1006.3
2023-09-22T09:25:02.646Z,1006.3
2023-09-22T09:26:02.388Z,1006.3
2023-09-22T09:27:02.515Z,1006.3
2023-09-22T09:28:02.607Z,1006.3
2023-09-22T09:29:02.430Z,1006.4
2023-09-22T09:30:02.384Z,1006.3
2023-09-22T09:31:02.512Z,1006.3
2023-09-22T09:32:02.439Z,1006.3
2023-09-22T09:33:02.494Z,1006.3
2023-09-22T09:34:02.340Z,1006.2
2023-09-22T09:35:02.153Z,1006.2
2023-09-22T09:36:02.180Z,1006.2
2023-09-22T09:37:02.114Z,1006.1
2023-09-22T09:38:02.006Z,1006.1
2023-09-22T09:39:01.846Z,1006.1
2023-09-22T09:40:02.079Z,1006.1
2023-09-22T09:41:01.832Z,1006.1
2023-09-22T09:42:01.900Z,1006.1
2023-09-22T09:43:01.895Z,1006.2
2023-09-22T09:44:01.782Z,1006.2
2023-09-22T09:45:01.677Z,1006.1
2023-09-22T09:46:03.086Z,1006.1
2023-09-22T09:48:02.070Z,1006.1
2023-09-22T09:49:01.984Z,1006.1
2023-09-22T09:50:01.892Z,1006.1
2023-09-22T09:51:02.766Z,1006.1
2023-09-22T09:52:02.733Z,1006.1
2023-09-22T09:53:02.550Z,1006.1
2023-09-22T09:54:02.484Z,1006.1
2023-09-22T09:55:02.967Z,1006.1
2023-09-22T09:56:01.881Z,1006.1
2023-09-22T09:57:01.756Z,1006.2
2023-09-22T09:58:02.926Z,1006.1
2023-09-22T09:59:07.270Z,1006.2
2023-09-22T10:00:01.939Z,1006.2
2023-09-22T10:01:02.399Z,1006.2
2023-09-22T10:02:02.676Z,1006.2
2023-09-22T10:03:02.897Z,1006.1
2023-09-22T10:04:02.928Z,1006.1
2023-09-22T10:05:01.966Z,1006.2
2023-09-22T10:06:02.025Z,1006.2
2023-09-22T10:07:01.957Z,1006.1
2023-09-22T10:08:02.104Z,1006.2
2023-09-22T10:09:01.776Z,1006.2
2023-09-22T10:10:02.218Z,1006.1
2023-09-22T10:11:01.963Z,1006.1
2023-09-22T10:12:02.886Z,1006.1
2023-09-22T10:13:03.056Z,1006.2
2023-09-22T10:14:01.734Z,1006.2
2023-09-22T10:15:01.752Z,1006.2
2023-09-22T10:16:03.257Z,1006.1
2023-09-22T10:18:02.899Z,1006.2
2023-09-22T10:19:02.591Z,1006.2
2023-09-22T10:20:02.586Z,1006.2
2023-09-22T10:21:02.419Z,1006.3
2023-09-22T10:22:02.960Z,1006.2
2023-09-22T10:23:01.660Z,1006.3
2023-09-22T10:24:02.839Z,1006.3
2023-09-22T10:25:02.674Z,1006.4
2023-09-22T10:26:02.656Z,1006.3
2023-09-22T10:27:02.501Z,1006.2
2023-09-22T10:28:08.908Z,1006.3
2023-09-22T10:29:01.608Z,1006.3
2023-09-22T10:30:02.669Z,1006.3
2023-09-22T10:31:03.018Z,1006.3
2023-09-22T10:32:01.901Z,1006.2
2023-09-22T10:33:01.781Z,1006.2
2023-09-22T10:34:01.774Z,1006.1
2023-09-22T10:35:03.106Z,1006.1
2023-09-22T10:36:01.839Z,1006.1
2023-09-22T10:37:02.058Z,1006.1
2023-09-22T10:38:02.150Z,1006.1
2023-09-22T10:39:02.439Z,1006.1
2023-09-22T10:40:02.638Z,1006.1
2023-09-22T10:41:04.631Z,1006.1
2023-09-22T10:42:02.387Z,1006.1
2023-09-22T10:43:02.417Z,1006.1
2023-09-22T10:44:02.312Z,1006.2
2023-09-22T10:45:02.177Z,1006.2
2023-09-22T10:46:01.848Z,1006.2
2023-09-22T10:47:02.467Z,1006.2
2023-09-22T10:48:02.333Z,1006.3
2023-09-22T10:49:02.349Z,1006.1
2023-09-22T10:50:02.199Z,1006.3
2023-09-22T10:52:02.363Z,1006.2
2023-09-22T10:53:02.054Z,1006.1
2023-09-22T10:54:02.047Z,1006.1
2023-09-22T10:55:01.948Z,1006.2
2023-09-22T10:56:01.886Z,1006.1
2023-09-22T10:57:01.954Z,1006.1
2023-09-22T10:58:01.754Z,1006.2
2023-09-22T10:59:01.920Z,1006.2
2023-09-22T11:00:02.581Z,1006.1
2023-09-22T11:02:02.608Z,1006.2
2023-09-22T11:03:02.546Z,1006.2
2023-09-22T11:04:02.362Z,1006.2
2023-09-22T11:05:04.323Z,1006.2
2023-09-22T11:06:02.424Z,1006.2
2023-09-22T11:07:02.370Z,1006.2
2023-09-22T11:08:02.144Z,1006.2
2023-09-22T11:09:02.153Z,1006.2
2023-09-22T11:10:02.045Z,1006.2
2023-09-22T11:11:02.019Z,1006.2
2023-09-22T11:12:02.109Z,1006.2
2023-09-22T11:13:01.901Z,1006.3
2023-09-22T11:14:01.900Z,1006.2
2023-09-22T11:15:02.335Z,1006.2
2023-09-22T11:16:02.607Z,1006.4
2023-09-22T11:17:02.607Z,1006.2
2023-09-22T11:18:02.571Z,1006.1
2023-09-22T11:19:02.249Z,1006.2
2023-09-22T11:20:02.427Z,1006.1
2023-09-22T11:21:02.290Z,1006
2023-09-22T11:22:02.084Z,1006.2
2023-09-22T11:23:02.267Z,1006.2
2023-09-22T11:24:02.001Z,1006.3
2023-09-22T11:25:02.261Z,1006.2
2023-09-22T11:26:02.002Z,1006.1
2023-09-22T11:27:02.009Z,1006.2
2023-09-22T11:28:01.883Z,1006.2
2023-09-22T11:29:02.511Z,1006.2
2023-09-22T11:30:02.376Z,1006.1
2023-09-22T11:32:02.251Z,1006.1
2023-09-22T11:33:02.072Z,1006.1
2023-09-22T11:34:02.125Z,1006.1
2023-09-22T11:35:26.669Z,1006
2023-09-22T11:36:02.336Z,1006.1
2023-09-22T11:37:02.312Z,1006.1
2023-09-22T11:38:02.464Z,1006.2
2023-09-22T11:39:02.204Z,1006.2
2023-09-22T11:40:02.380Z,1006.2
2023-09-22T11:41:02.063Z,1006.2
2023-09-22T11:42:02.105Z,1006.2
2023-09-22T11:43:02.252Z,1006.2
2023-09-22T11:44:02.010Z,1006.1
2023-09-22T11:45:02.174Z,1006.2
2023-09-22T11:46:02.707Z,1006.2
2023-09-22T11:47:02.593Z,1006.3
2023-09-22T11:48:02.927Z,1006.3
2023-09-22T11:49:02.667Z,1006.3
2023-09-22T11:50:02.798Z,1006.2
2023-09-22T11:51:02.469Z,1006.4
2023-09-22T11:52:03.753Z,1006.2
2023-09-22T11:53:01.939Z,1006.2
2023-09-22T11:54:02.412Z,1006.2
2023-09-22T11:55:02.086Z,1006.2
2023-09-22T11:56:02.030Z,1006.1
2023-09-22T11:57:02.257Z,1006.1
2023-09-22T11:58:01.860Z,1006.1
2023-09-22T11:59:02.175Z,1006.1
2023-09-22T12:00:03.351Z,1006
2023-09-22T12:02:08.050Z,1006.1
2023-09-22T12:03:01.973Z,1006.1
2023-09-22T12:04:02.289Z,1006.2
2023-09-22T12:05:02.912Z,1006.2
2023-09-22T12:06:02.763Z,1006.3
2023-09-22T12:07:03.029Z,1006.3
2023-09-22T12:08:01.659Z,1006.2
2023-09-22T12:09:01.724Z,1006.2
2023-09-22T12:10:01.573Z,1006.2
2023-09-22T12:11:02.782Z,1006.2
2023-09-22T12:12:02.567Z,1006.3
2023-09-22T12:13:02.738Z,1006.2
2023-09-22T12:14:02.805Z,1006.3
2023-09-22T12:15:02.599Z,1006.3
2023-09-22T12:17:02.372Z,1006.2
2023-09-22T12:18:02.386Z,1006.4
2023-09-22T12:19:02.099Z,1006.4
2023-09-22T12:20:02.178Z,1006.4
2023-09-22T12:21:01.913Z,1006.3
2023-09-22T12:22:02.065Z,1006.3
2023-09-22T12:23:01.992Z,1006.3
2023-09-22T12:24:02.303Z,1006.4
2023-09-22T12:25:02.001Z,1006.3
2023-09-22T12:26:02.024Z,1006.4
2023-09-22T12:27:01.884Z,1006.4
2023-09-22T12:28:01.905Z,1006.3
2023-09-22T12:29:01.998Z,1006.3
2023-09-22T12:30:01.820Z,1006.3
2023-09-22T12:31:02.966Z,1006.3
2023-09-22T12:32:01.875Z,1006.5
2023-09-22T12:33:01.740Z,1006.3
2023-09-22T12:34:01.644Z,1006.5
2023-09-22T12:35:01.874Z,1006.5
2023-09-22T12:36:03.198Z,1006.4
2023-09-22T12:37:01.826Z,1006.5
2023-09-22T12:38:01.800Z,1006.5
2023-09-22T12:39:01.724Z,1006.5
2023-09-22T12:40:01.813Z,1006.4
2023-09-22T12:41:01.726Z,1006.4
2023-09-22T12:42:01.754Z,1006.3
2023-09-22T12:43:01.646Z,1006.3
2023-09-22T12:44:02.948Z,1006.4
2023-09-22T12:45:01.647Z,1006.3
2023-09-22T12:46:03.102Z,1006.3
2023-09-22T12:47:01.950Z,1006.4
2023-09-22T12:48:01.815Z,1006.4
2023-09-22T12:49:02.181Z,1006.4
2023-09-22T12:50:01.800Z,1006.4
2023-09-22T12:51:02.019Z,1006.5
2023-09-22T12:52:01.758Z,1006.4
2023-09-22T12:53:01.810Z,1006.5
2023-09-22T12:54:01.676Z,1006.5